sensor_id;sensor_type;location;lat;lon;timestamp;temperature;humidity
70826;SHT31;58446;41.490;22.098;2023-05-07T00:02:22;16.21;69.38
70826;SHT31;58446;41.490;22.098;2023-05-07T00:04:48;16.61;67.94
70826;SHT31;58446;41.490;22.098;2023-05-07T00:07:14;16.71;67.58
70826;SHT31;58446;41.490;22.098;2023-05-07T00:09:40;16.73;67.28
70826;SHT31;58446;41.490;22.098;2023-05-07T00:12:06;16.72;67.32
70826;SHT31;58446;41.490;22.098;2023-05-07T00:14:33;16.95;66.71
70826;SHT31;58446;41.490;22.098;2023-05-07T00:16:58;16.98;66.53
70826;SHT31;58446;41.490;22.098;2023-05-07T00:19:24;16.93;66.58
70826;SHT31;58446;41.490;22.098;2023-05-07T00:21:50;16.85;66.67
70826;SHT31;58446;41.490;22.098;2023-05-07T00:24:16;16.85;66.75
70826;SHT31;58446;41.490;22.098;2023-05-07T00:26:41;16.83;66.87
70826;SHT31;58446;41.490;22.098;2023-05-07T00:29:07;16.92;66.47
70826;SHT31;58446;41.490;22.098;2023-05-07T00:31:33;17.05;66.02
70826;SHT31;58446;41.490;22.098;2023-05-07T00:33:58;16.90;66.12
70826;SHT31;58446;41.490;22.098;2023-05-07T00:36:24;16.62;67.04
70826;SHT31;58446;41.490;22.098;2023-05-07T00:38:51;16.31;67.89
70826;SHT31;58446;41.490;22.098;2023-05-07T00:41:17;16.45;67.77
70826;SHT31;58446;41.490;22.098;2023-05-07T00:43:43;16.28;68.45
70826;SHT31;58446;41.490;22.098;2023-05-07T00:46:08;16.38;68.16
70826;SHT31;58446;41.490;22.098;2023-05-07T00:48:35;16.44;68.10
70826;SHT31;58446;41.490;22.098;2023-05-07T00:51:01;16.55;67.24
70826;SHT31;58446;41.490;22.098;2023-05-07T00:53:27;16.48;67.61
70826;SHT31;58446;41.490;22.098;2023-05-07T00:55:52;16.55;67.20
70826;SHT31;58446;41.490;22.098;2023-05-07T00:58:19;16.69;66.82
70826;SHT31;58446;41.490;22.098;2023-05-07T01:00:45;16.64;66.89
70826;SHT31;58446;41.490;22.098;2023-05-07T01:03:11;16.73;66.51
70826;SHT31;58446;41.490;22.098;2023-05-07T01:05:37;16.73;66.37
70826;SHT31;58446;41.490;22.098;2023-05-07T01:08:04;16.85;65.59
70826;SHT31;58446;41.490;22.098;2023-05-07T01:10:30;16.73;65.83
70826;SHT31;58446;41.490;22.098;2023-05-07T01:12:57;16.85;65.78
70826;SHT31;58446;41.490;22.098;2023-05-07T01:15:24;16.73;65.54
70826;SHT31;58446;41.490;22.098;2023-05-07T01:17:49;16.49;66.08
70826;SHT31;58446;41.490;22.098;2023-05-07T01:20:15;16.40;66.32
70826;SHT31;58446;41.490;22.098;2023-05-07T01:22:43;16.49;66.19
70826;SHT31;58446;41.490;22.098;2023-05-07T01:25:08;16.44;66.03
70826;SHT31;58446;41.490;22.098;2023-05-07T01:27:35;16.44;66.14
70826;SHT31;58446;41.490;22.098;2023-05-07T01:30:04;16.10;66.01
70826;SHT31;58446;41.490;22.098;2023-05-07T01:32:56;16.17;66.86
70826;SHT31;58446;41.490;22.098;2023-05-07T01:35:28;16.16;66.41
70826;SHT31;58446;41.490;22.098;2023-05-07T01:37:54;16.16;66.72
70826;SHT31;58446;41.490;22.098;2023-05-07T01:40:21;16.22;66.52
70826;SHT31;58446;41.490;22.098;2023-05-07T01:42:47;16.32;66.09
70826;SHT31;58446;41.490;22.098;2023-05-07T01:45:13;16.40;66.01
70826;SHT31;58446;41.490;22.098;2023-05-07T01:47:39;16.38;65.99
70826;SHT31;58446;41.490;22.098;2023-05-07T01:50:06;16.07;65.75
70826;SHT31;58446;41.490;22.098;2023-05-07T01:52:34;16.03;66.62
70826;SHT31;58446;41.490;22.098;2023-05-07T01:55:00;15.97;66.35
70826;SHT31;58446;41.490;22.098;2023-05-07T01:57:26;15.69;67.40
70826;SHT31;58446;41.490;22.098;2023-05-07T01:59:51;15.87;67.35
70826;SHT31;58446;41.490;22.098;2023-05-07T02:02:17;15.91;67.04
70826;SHT31;58446;41.490;22.098;2023-05-07T02:04:43;15.98;66.77
70826;SHT31;58446;41.490;22.098;2023-05-07T02:07:08;16.11;66.53
70826;SHT31;58446;41.490;22.098;2023-05-07T02:09:34;16.04;66.25
70826;SHT31;58446;41.490;22.098;2023-05-07T02:12:00;15.89;66.60
70826;SHT31;58446;41.490;22.098;2023-05-07T02:14:26;15.76;66.75
70826;SHT31;58446;41.490;22.098;2023-05-07T02:16:52;15.65;67.07
70826;SHT31;58446;41.490;22.098;2023-05-07T02:19:18;15.42;68.10
70826;SHT31;58446;41.490;22.098;2023-05-07T02:21:46;15.35;68.41
70826;SHT31;58446;41.490;22.098;2023-05-07T02:24:12;15.29;69.06
70826;SHT31;58446;41.490;22.098;2023-05-07T02:26:39;15.56;68.36
70826;SHT31;58446;41.490;22.098;2023-05-07T02:29:05;15.36;69.18
70826;SHT31;58446;41.490;22.098;2023-05-07T02:31:31;15.56;68.38
70826;SHT31;58446;41.490;22.098;2023-05-07T02:33:59;15.49;68.16
70826;SHT31;58446;41.490;22.098;2023-05-07T02:36:25;15.58;67.91
70826;SHT31;58446;41.490;22.098;2023-05-07T02:38:52;15.66;67.82
70826;SHT31;58446;41.490;22.098;2023-05-07T02:41:18;15.69;67.76
70826;SHT31;58446;41.490;22.098;2023-05-07T02:43:43;15.79;67.40
70826;SHT31;58446;41.490;22.098;2023-05-07T02:46:09;15.85;67.02
70826;SHT31;58446;41.490;22.098;2023-05-07T02:48:35;15.77;66.87
70826;SHT31;58446;41.490;22.098;2023-05-07T02:51:02;15.67;67.33
70826;SHT31;58446;41.490;22.098;2023-05-07T02:53:28;15.60;67.59
70826;SHT31;58446;41.490;22.098;2023-05-07T02:55:59;15.67;66.97
70826;SHT31;58446;41.490;22.098;2023-05-07T02:58:25;15.93;66.37
70826;SHT31;58446;41.490;22.098;2023-05-07T03:00:51;15.94;65.80
70826;SHT31;58446;41.490;22.098;2023-05-07T03:03:17;15.76;66.46
70826;SHT31;58446;41.490;22.098;2023-05-07T03:05:42;15.69;66.39
70826;SHT31;58446;41.490;22.098;2023-05-07T03:08:09;15.48;66.28
70826;SHT31;58446;41.490;22.098;2023-05-07T03:10:36;15.12;67.18
70826;SHT31;58446;41.490;22.098;2023-05-07T03:13:02;14.68;68.58
70826;SHT31;58446;41.490;22.098;2023-05-07T03:15:27;14.77;69.09
70826;SHT31;58446;41.490;22.098;2023-05-07T03:17:53;14.89;69.19
70826;SHT31;58446;41.490;22.098;2023-05-07T03:20:19;14.94;69.14
70826;SHT31;58446;41.490;22.098;2023-05-07T03:22:45;15.09;68.84
70826;SHT31;58446;41.490;22.098;2023-05-07T03:25:10;15.14;68.73
70826;SHT31;58446;41.490;22.098;2023-05-07T03:27:36;15.28;68.09
70826;SHT31;58446;41.490;22.098;2023-05-07T03:30:03;14.94;68.14
70826;SHT31;58446;41.490;22.098;2023-05-07T03:32:29;14.80;68.68
70826;SHT31;58446;41.490;22.098;2023-05-07T03:34:55;14.94;68.68
70826;SHT31;58446;41.490;22.098;2023-05-07T03:37:21;15.02;68.72
70826;SHT31;58446;41.490;22.098;2023-05-07T03:39:47;15.21;68.22
70826;SHT31;58446;41.490;22.098;2023-05-07T03:42:13;15.43;67.35
70826;SHT31;58446;41.490;22.098;2023-05-07T03:44:38;15.63;66.85
70826;SHT31;58446;41.490;22.098;2023-05-07T03:47:04;15.86;66.07
70826;SHT31;58446;41.490;22.098;2023-05-07T03:49:30;15.73;66.03
70826;SHT31;58446;41.490;22.098;2023-05-07T03:51:55;15.74;66.13
70826;SHT31;58446;41.490;22.098;2023-05-07T03:54:21;15.42;66.73
70826;SHT31;58446;41.490;22.098;2023-05-07T03:56:47;15.48;67.02
70826;SHT31;58446;41.490;22.098;2023-05-07T03:59:13;15.58;66.20
70826;SHT31;58446;41.490;22.098;2023-05-07T04:01:39;15.18;67.41
70826;SHT31;58446;41.490;22.098;2023-05-07T04:04:05;15.32;67.53
70826;SHT31;58446;41.490;22.098;2023-05-07T04:06:31;15.50;66.80
70826;SHT31;58446;41.490;22.098;2023-05-07T04:08:57;15.59;66.37
70826;SHT31;58446;41.490;22.098;2023-05-07T04:11:22;15.56;66.42
70826;SHT31;58446;41.490;22.098;2023-05-07T04:13:48;15.21;67.05
70826;SHT31;58446;41.490;22.098;2023-05-07T04:16:14;15.38;67.11
70826;SHT31;58446;41.490;22.098;2023-05-07T04:18:40;15.87;65.74
70826;SHT31;58446;41.490;22.098;2023-05-07T04:21:06;16.24;64.53
70826;SHT31;58446;41.490;22.098;2023-05-07T04:23:38;16.35;64.09
70826;SHT31;58446;41.490;22.098;2023-05-07T04:26:04;16.34;64.51
70826;SHT31;58446;41.490;22.098;2023-05-07T04:28:30;16.35;64.79
70826;SHT31;58446;41.490;22.098;2023-05-07T04:30:55;16.58;64.05
70826;SHT31;58446;41.490;22.098;2023-05-07T04:33:21;16.54;64.88
70826;SHT31;58446;41.490;22.098;2023-05-07T04:35:47;16.14;65.87
70826;SHT31;58446;41.490;22.098;2023-05-07T04:38:12;16.25;66.18
70826;SHT31;58446;41.490;22.098;2023-05-07T04:40:38;16.35;66.02
70826;SHT31;58446;41.490;22.098;2023-05-07T04:43:04;16.35;65.85
70826;SHT31;58446;41.490;22.098;2023-05-07T04:45:30;16.11;66.45
70826;SHT31;58446;41.490;22.098;2023-05-07T04:47:55;16.24;66.85
70826;SHT31;58446;41.490;22.098;2023-05-07T04:50:21;16.41;65.69
70826;SHT31;58446;41.490;22.098;2023-05-07T04:52:50;16.40;66.63
70826;SHT31;58446;41.490;22.098;2023-05-07T04:55:16;16.38;67.32
70826;SHT31;58446;41.490;22.098;2023-05-07T04:57:42;16.73;65.57
70826;SHT31;58446;41.490;22.098;2023-05-07T05:00:08;16.95;65.58
70826;SHT31;58446;41.490;22.098;2023-05-07T05:02:34;17.12;64.40
70826;SHT31;58446;41.490;22.098;2023-05-07T05:05:01;17.29;64.46
70826;SHT31;58446;41.490;22.098;2023-05-07T05:07:29;17.38;64.21
70826;SHT31;58446;41.490;22.098;2023-05-07T05:09:55;17.64;64.17
70826;SHT31;58446;41.490;22.098;2023-05-07T05:12:20;17.55;64.52
70826;SHT31;58446;41.490;22.098;2023-05-07T05:14:46;18.01;63.89
70826;SHT31;58446;41.490;22.098;2023-05-07T05:17:12;18.26;62.84
70826;SHT31;58446;41.490;22.098;2023-05-07T05:19:38;18.32;62.13
70826;SHT31;58446;41.490;22.098;2023-05-07T05:22:04;18.46;61.55
70826;SHT31;58446;41.490;22.098;2023-05-07T05:24:30;18.36;61.80
70826;SHT31;58446;41.490;22.098;2023-05-07T05:26:56;18.56;61.15
70826;SHT31;58446;41.490;22.098;2023-05-07T05:29:22;18.42;61.89
70826;SHT31;58446;41.490;22.098;2023-05-07T05:31:48;18.90;61.40
70826;SHT31;58446;41.490;22.098;2023-05-07T05:34:13;19.27;60.21
70826;SHT31;58446;41.490;22.098;2023-05-07T05:36:39;19.54;58.58
70826;SHT31;58446;41.490;22.098;2023-05-07T05:39:04;19.29;59.07
70826;SHT31;58446;41.490;22.098;2023-05-07T05:41:31;19.41;58.97
70826;SHT31;58446;41.490;22.098;2023-05-07T05:43:57;19.65;58.74
70826;SHT31;58446;41.490;22.098;2023-05-07T05:46:22;19.65;58.49
70826;SHT31;58446;41.490;22.098;2023-05-07T05:48:48;19.76;57.78
70826;SHT31;58446;41.490;22.098;2023-05-07T05:51:14;19.89;57.94
70826;SHT31;58446;41.490;22.098;2023-05-07T05:53:39;19.90;56.45
70826;SHT31;58446;41.490;22.098;2023-05-07T05:56:05;19.93;56.05
70826;SHT31;58446;41.490;22.098;2023-05-07T05:58:31;20.03;56.54
70826;SHT31;58446;41.490;22.098;2023-05-07T06:00:57;20.30;55.43
70826;SHT31;58446;41.490;22.098;2023-05-07T06:03:24;20.41;55.06
70826;SHT31;58446;41.490;22.098;2023-05-07T06:05:49;20.54;53.98
70826;SHT31;58446;41.490;22.098;2023-05-07T06:08:15;20.47;55.47
70826;SHT31;58446;41.490;22.098;2023-05-07T06:10:41;20.57;55.27
70826;SHT31;58446;41.490;22.098;2023-05-07T06:13:07;20.74;54.06
70826;SHT31;58446;41.490;22.098;2023-05-07T06:15:33;20.72;55.21
70826;SHT31;58446;41.490;22.098;2023-05-07T06:17:58;20.79;56.69
70826;SHT31;58446;41.490;22.098;2023-05-07T06:20:24;21.03;56.55
70826;SHT31;58446;41.490;22.098;2023-05-07T06:22:50;21.00;55.75
70826;SHT31;58446;41.490;22.098;2023-05-07T06:25:15;21.16;55.19
70826;SHT31;58446;41.490;22.098;2023-05-07T06:27:41;21.23;54.62
70826;SHT31;58446;41.490;22.098;2023-05-07T06:30:07;21.30;55.31
70826;SHT31;58446;41.490;22.098;2023-05-07T06:32:33;21.32;55.62
70826;SHT31;58446;41.490;22.098;2023-05-07T06:34:59;21.46;54.65
70826;SHT31;58446;41.490;22.098;2023-05-07T06:37:25;21.47;53.41
70826;SHT31;58446;41.490;22.098;2023-05-07T06:39:51;21.40;54.22
70826;SHT31;58446;41.490;22.098;2023-05-07T06:42:17;21.30;55.66
70826;SHT31;58446;41.490;22.098;2023-05-07T06:44:42;21.49;55.45
70826;SHT31;58446;41.490;22.098;2023-05-07T06:47:08;21.73;55.08
70826;SHT31;58446;41.490;22.098;2023-05-07T06:49:33;21.87;54.17
70826;SHT31;58446;41.490;22.098;2023-05-07T06:51:59;21.59;55.02
70826;SHT31;58446;41.490;22.098;2023-05-07T06:54:25;21.63;55.13
70826;SHT31;58446;41.490;22.098;2023-05-07T06:56:51;21.64;55.03
70826;SHT31;58446;41.490;22.098;2023-05-07T06:59:16;21.83;56.20
70826;SHT31;58446;41.490;22.098;2023-05-07T07:01:42;21.96;53.80
70826;SHT31;58446;41.490;22.098;2023-05-07T07:04:08;21.88;54.01
70826;SHT31;58446;41.490;22.098;2023-05-07T07:06:33;21.98;52.90
70826;SHT31;58446;41.490;22.098;2023-05-07T07:08:59;22.02;52.99
70826;SHT31;58446;41.490;22.098;2023-05-07T07:11:25;22.14;53.79
70826;SHT31;58446;41.490;22.098;2023-05-07T07:13:51;22.21;51.54
70826;SHT31;58446;41.490;22.098;2023-05-07T07:16:20;21.98;52.67
70826;SHT31;58446;41.490;22.098;2023-05-07T07:18:46;21.66;51.76
70826;SHT31;58446;41.490;22.098;2023-05-07T07:21:11;21.64;52.24
70826;SHT31;58446;41.490;22.098;2023-05-07T07:23:37;21.64;52.97
70826;SHT31;58446;41.490;22.098;2023-05-07T07:26:03;21.67;53.42
70826;SHT31;58446;41.490;22.098;2023-05-07T07:28:31;21.84;52.67
70826;SHT31;58446;41.490;22.098;2023-05-07T07:30:56;22.08;52.94
70826;SHT31;58446;41.490;22.098;2023-05-07T07:33:22;22.37;52.71
70826;SHT31;58446;41.490;22.098;2023-05-07T07:35:48;22.51;51.41
70826;SHT31;58446;41.490;22.098;2023-05-07T07:38:13;22.47;52.71
70826;SHT31;58446;41.490;22.098;2023-05-07T07:40:39;22.31;52.48
70826;SHT31;58446;41.490;22.098;2023-05-07T07:43:05;22.25;51.87
70826;SHT31;58446;41.490;22.098;2023-05-07T07:45:31;22.17;53.16
70826;SHT31;58446;41.490;22.098;2023-05-07T07:47:57;21.86;51.51
70826;SHT31;58446;41.490;22.098;2023-05-07T07:50:22;21.53;53.12
70826;SHT31;58446;41.490;22.098;2023-05-07T07:52:49;21.81;53.10
70826;SHT31;58446;41.490;22.098;2023-05-07T07:55:14;21.97;52.65
70826;SHT31;58446;41.490;22.098;2023-05-07T07:57:43;22.32;53.22
70826;SHT31;58446;41.490;22.098;2023-05-07T08:00:09;22.60;51.84
70826;SHT31;58446;41.490;22.098;2023-05-07T08:02:35;22.44;51.52
70826;SHT31;58446;41.490;22.098;2023-05-07T08:05:00;22.22;50.49
70826;SHT31;58446;41.490;22.098;2023-05-07T08:07:26;22.09;52.05
70826;SHT31;58446;41.490;22.098;2023-05-07T08:09:52;22.25;51.57
70826;SHT31;58446;41.490;22.098;2023-05-07T08:12:18;22.51;51.17
70826;SHT31;58446;41.490;22.098;2023-05-07T08:14:44;22.76;51.69
70826;SHT31;58446;41.490;22.098;2023-05-07T08:17:09;22.92;51.56
70826;SHT31;58446;41.490;22.098;2023-05-07T08:19:36;23.04;52.27
70826;SHT31;58446;41.490;22.098;2023-05-07T08:22:03;23.11;51.94
70826;SHT31;58446;41.490;22.098;2023-05-07T08:24:30;23.21;51.05
70826;SHT31;58446;41.490;22.098;2023-05-07T08:26:56;23.04;52.08
70826;SHT31;58446;41.490;22.098;2023-05-07T08:29:22;23.04;49.86
70826;SHT31;58446;41.490;22.098;2023-05-07T08:31:47;23.00;51.10
70826;SHT31;58446;41.490;22.098;2023-05-07T08:34:13;23.16;50.88
70826;SHT31;58446;41.490;22.098;2023-05-07T08:36:39;23.28;47.78
70826;SHT31;58446;41.490;22.098;2023-05-07T08:39:07;23.21;48.95
70826;SHT31;58446;41.490;22.098;2023-05-07T08:41:32;23.03;50.83
70826;SHT31;58446;41.490;22.098;2023-05-07T08:43:59;23.17;49.53
70826;SHT31;58446;41.490;22.098;2023-05-07T08:46:31;23.31;50.08
70826;SHT31;58446;41.490;22.098;2023-05-07T08:48:57;23.28;50.63
70826;SHT31;58446;41.490;22.098;2023-05-07T08:51:23;23.17;49.73
70826;SHT31;58446;41.490;22.098;2023-05-07T08:53:50;23.27;49.66
70826;SHT31;58446;41.490;22.098;2023-05-07T08:56:16;23.34;49.59
70826;SHT31;58446;41.490;22.098;2023-05-07T08:58:44;23.34;50.94
70826;SHT31;58446;41.490;22.098;2023-05-07T09:01:14;23.53;47.90
70826;SHT31;58446;41.490;22.098;2023-05-07T09:03:40;23.58;49.44
70826;SHT31;58446;41.490;22.098;2023-05-07T09:06:06;23.53;50.35
70826;SHT31;58446;41.490;22.098;2023-05-07T09:08:35;23.38;48.09
70826;SHT31;58446;41.490;22.098;2023-05-07T09:11:01;23.27;48.26
70826;SHT31;58446;41.490;22.098;2023-05-07T09:13:28;23.30;48.22
70826;SHT31;58446;41.490;22.098;2023-05-07T09:15:54;23.46;50.18
70826;SHT31;58446;41.490;22.098;2023-05-07T09:18:20;23.54;49.52
70826;SHT31;58446;41.490;22.098;2023-05-07T09:20:45;23.51;50.48
70826;SHT31;58446;41.490;22.098;2023-05-07T09:23:11;23.58;48.79
70826;SHT31;58446;41.490;22.098;2023-05-07T09:25:37;23.62;50.25
70826;SHT31;58446;41.490;22.098;2023-05-07T09:28:06;23.82;49.91
70826;SHT31;58446;41.490;22.098;2023-05-07T09:30:33;23.98;49.93
70826;SHT31;58446;41.490;22.098;2023-05-07T09:33:00;24.33;48.78
70826;SHT31;58446;41.490;22.098;2023-05-07T09:35:27;24.50;48.09
70826;SHT31;58446;41.490;22.098;2023-05-07T09:37:53;24.55;46.64
70826;SHT31;58446;41.490;22.098;2023-05-07T09:40:27;24.44;46.24
70826;SHT31;58446;41.490;22.098;2023-05-07T09:42:53;24.26;44.73
70826;SHT31;58446;41.490;22.098;2023-05-07T09:45:27;24.19;45.47
70826;SHT31;58446;41.490;22.098;2023-05-07T09:47:55;24.18;43.82
70826;SHT31;58446;41.490;22.098;2023-05-07T09:50:26;24.09;44.41
70826;SHT31;58446;41.490;22.098;2023-05-07T09:52:54;24.20;45.26
70826;SHT31;58446;41.490;22.098;2023-05-07T09:55:21;24.29;45.32
70826;SHT31;58446;41.490;22.098;2023-05-07T09:57:50;24.20;44.47
70826;SHT31;58446;41.490;22.098;2023-05-07T10:00:18;24.41;47.36
70826;SHT31;58446;41.490;22.098;2023-05-07T10:02:49;24.61;46.66
70826;SHT31;58446;41.490;22.098;2023-05-07T10:05:21;24.81;46.97
70826;SHT31;58446;41.490;22.098;2023-05-07T10:07:47;25.01;47.42
70826;SHT31;58446;41.490;22.098;2023-05-07T10:10:14;25.15;45.33
70826;SHT31;58446;41.490;22.098;2023-05-07T10:12:43;25.21;44.34
70826;SHT31;58446;41.490;22.098;2023-05-07T10:15:10;25.10;41.68
70826;SHT31;58446;41.490;22.098;2023-05-07T10:17:39;24.94;39.99
70826;SHT31;58446;41.490;22.098;2023-05-07T10:20:06;24.91;41.34
70826;SHT31;58446;41.490;22.098;2023-05-07T10:22:43;24.97;42.38
70826;SHT31;58446;41.490;22.098;2023-05-07T10:25:18;24.91;41.70
70826;SHT31;58446;41.490;22.098;2023-05-07T10:27:47;24.94;42.06
70826;SHT31;58446;41.490;22.098;2023-05-07T10:32:53;25.11;41.47
70826;SHT31;58446;41.490;22.098;2023-05-07T10:35:24;25.12;41.13
70826;SHT31;58446;41.490;22.098;2023-05-07T10:37:51;25.03;41.71
70826;SHT31;58446;41.490;22.098;2023-05-07T10:40:19;25.11;40.79
70826;SHT31;58446;41.490;22.098;2023-05-07T10:43:00;25.25;41.65
70826;SHT31;58446;41.490;22.098;2023-05-07T10:45:27;25.29;39.99
70826;SHT31;58446;41.490;22.098;2023-05-07T10:48:12;25.34;40.09
70826;SHT31;58446;41.490;22.098;2023-05-07T10:50:39;25.31;41.82
70826;SHT31;58446;41.490;22.098;2023-05-07T10:55:51;25.31;40.05
70826;SHT31;58446;41.490;22.098;2023-05-07T10:58:28;25.14;40.23
70826;SHT31;58446;41.490;22.098;2023-05-07T11:00:59;25.18;40.58
70826;SHT31;58446;41.490;22.098;2023-05-07T11:03:26;25.19;40.73
70826;SHT31;58446;41.490;22.098;2023-05-07T11:06:12;25.18;39.68
70826;SHT31;58446;41.490;22.098;2023-05-07T11:09:04;25.08;40.92
70826;SHT31;58446;41.490;22.098;2023-05-07T11:11:49;24.92;42.22
70826;SHT31;58446;41.490;22.098;2023-05-07T11:17:09;24.94;41.05
70826;SHT31;58446;41.490;22.098;2023-05-07T11:19:50;24.97;41.08
70826;SHT31;58446;41.490;22.098;2023-05-07T11:25:00;25.27;39.77
70826;SHT31;58446;41.490;22.098;2023-05-07T11:27:27;25.38;38.42
70826;SHT31;58446;41.490;22.098;2023-05-07T11:29:53;25.46;42.31
70826;SHT31;58446;41.490;22.098;2023-05-07T11:32:31;25.63;41.88
70826;SHT31;58446;41.490;22.098;2023-05-07T11:34:58;25.65;39.09
70826;SHT31;58446;41.490;22.098;2023-05-07T11:37:26;25.65;40.08
70826;SHT31;58446;41.490;22.098;2023-05-07T11:40:07;25.76;38.66
70826;SHT31;58446;41.490;22.098;2023-05-07T11:42:40;25.83;38.07
70826;SHT31;58446;41.490;22.098;2023-05-07T11:45:08;25.93;37.43
70826;SHT31;58446;41.490;22.098;2023-05-07T11:47:34;26.00;35.68
70826;SHT31;58446;41.490;22.098;2023-05-07T11:50:05;26.01;37.43
70826;SHT31;58446;41.490;22.098;2023-05-07T11:52:31;26.03;37.20
70826;SHT31;58446;41.490;22.098;2023-05-07T11:54:58;25.99;36.00
70826;SHT31;58446;41.490;22.098;2023-05-07T11:57:26;26.04;37.55
70826;SHT31;58446;41.490;22.098;2023-05-07T11:59:56;26.00;37.01
70826;SHT31;58446;41.490;22.098;2023-05-07T12:02:23;26.06;36.60
70826;SHT31;58446;41.490;22.098;2023-05-07T12:04:50;26.16;36.33
70826;SHT31;58446;41.490;22.098;2023-05-07T12:07:17;26.16;37.29
70826;SHT31;58446;41.490;22.098;2023-05-07T12:09:45;26.17;36.35
70826;SHT31;58446;41.490;22.098;2023-05-07T12:12:11;26.12;36.19
70826;SHT31;58446;41.490;22.098;2023-05-07T12:14:41;26.06;35.64
70826;SHT31;58446;41.490;22.098;2023-05-07T12:17:08;26.18;37.38
70826;SHT31;58446;41.490;22.098;2023-05-07T12:19:35;26.20;35.99
70826;SHT31;58446;41.490;22.098;2023-05-07T12:22:02;26.03;35.98
70826;SHT31;58446;41.490;22.098;2023-05-07T12:24:28;25.92;36.53
70826;SHT31;58446;41.490;22.098;2023-05-07T12:26:54;25.93;35.61
70826;SHT31;58446;41.490;22.098;2023-05-07T12:29:23;25.99;34.90
70826;SHT31;58446;41.490;22.098;2023-05-07T12:31:50;26.06;34.65
70826;SHT31;58446;41.490;22.098;2023-05-07T12:34:15;26.09;34.73
70826;SHT31;58446;41.490;22.098;2023-05-07T12:36:41;26.17;35.16
70826;SHT31;58446;41.490;22.098;2023-05-07T12:39:08;26.23;36.35
70826;SHT31;58446;41.490;22.098;2023-05-07T12:41:56;26.18;35.62
70826;SHT31;58446;41.490;22.098;2023-05-07T12:44:25;26.23;37.18
70826;SHT31;58446;41.490;22.098;2023-05-07T12:46:51;26.24;36.42
70826;SHT31;58446;41.490;22.098;2023-05-07T12:49:17;26.26;34.57
70826;SHT31;58446;41.490;22.098;2023-05-07T12:51:49;26.38;37.51
70826;SHT31;58446;41.490;22.098;2023-05-07T12:54:47;26.41;37.39
70826;SHT31;58446;41.490;22.098;2023-05-07T12:57:13;26.45;33.45
70826;SHT31;58446;41.490;22.098;2023-05-07T12:59:40;26.36;35.03
70826;SHT31;58446;41.490;22.098;2023-05-07T13:02:07;26.41;34.60
70826;SHT31;58446;41.490;22.098;2023-05-07T13:04:33;26.48;34.77
70826;SHT31;58446;41.490;22.098;2023-05-07T13:07:00;26.57;34.43
70826;SHT31;58446;41.490;22.098;2023-05-07T13:09:26;26.68;34.33
70826;SHT31;58446;41.490;22.098;2023-05-07T13:11:52;26.74;34.71
70826;SHT31;58446;41.490;22.098;2023-05-07T13:14:17;26.74;34.10
70826;SHT31;58446;41.490;22.098;2023-05-07T13:16:45;26.68;32.91
70826;SHT31;58446;41.490;22.098;2023-05-07T13:19:11;26.65;33.08
70826;SHT31;58446;41.490;22.098;2023-05-07T13:21:36;26.38;34.96
70826;SHT31;58446;41.490;22.098;2023-05-07T13:24:02;26.31;34.33
70826;SHT31;58446;41.490;22.098;2023-05-07T13:26:30;26.34;34.70
70826;SHT31;58446;41.490;22.098;2023-05-07T13:28:56;26.47;33.17
70826;SHT31;58446;41.490;22.098;2023-05-07T13:31:22;26.41;33.92
70826;SHT31;58446;41.490;22.098;2023-05-07T13:33:48;26.43;34.48
70826;SHT31;58446;41.490;22.098;2023-05-07T13:36:14;26.43;31.74
70826;SHT31;58446;41.490;22.098;2023-05-07T13:38:41;26.38;34.35
70826;SHT31;58446;41.490;22.098;2023-05-07T13:41:07;26.49;34.90
70826;SHT31;58446;41.490;22.098;2023-05-07T13:43:34;26.55;33.66
70826;SHT31;58446;41.490;22.098;2023-05-07T13:46:00;26.58;35.61
70826;SHT31;58446;41.490;22.098;2023-05-07T13:48:26;26.57;34.23
70826;SHT31;58446;41.490;22.098;2023-05-07T13:50:52;26.67;34.01
70826;SHT31;58446;41.490;22.098;2023-05-07T13:53:18;26.74;34.31
70826;SHT31;58446;41.490;22.098;2023-05-07T13:55:44;26.81;34.27
70826;SHT31;58446;41.490;22.098;2023-05-07T13:58:10;26.89;33.62
70826;SHT31;58446;41.490;22.098;2023-05-07T14:00:36;26.81;33.50
70826;SHT31;58446;41.490;22.098;2023-05-07T14:03:03;26.67;34.38
70826;SHT31;58446;41.490;22.098;2023-05-07T14:05:29;26.69;36.19
70826;SHT31;58446;41.490;22.098;2023-05-07T14:07:57;26.79;35.14
70826;SHT31;58446;41.490;22.098;2023-05-07T14:10:23;26.79;34.95
70826;SHT31;58446;41.490;22.098;2023-05-07T14:12:49;26.74;35.33
70826;SHT31;58446;41.490;22.098;2023-05-07T14:15:15;26.74;31.99
70826;SHT31;58446;41.490;22.098;2023-05-07T14:17:42;26.65;33.18
70826;SHT31;58446;41.490;22.098;2023-05-07T14:20:08;26.64;33.79
70826;SHT31;58446;41.490;22.098;2023-05-07T14:22:34;26.61;33.84
70826;SHT31;58446;41.490;22.098;2023-05-07T14:25:00;26.61;34.49
70826;SHT31;58446;41.490;22.098;2023-05-07T14:27:26;26.65;34.94
70826;SHT31;58446;41.490;22.098;2023-05-07T14:29:51;26.75;31.99
70826;SHT31;58446;41.490;22.098;2023-05-07T14:32:17;26.71;33.91
70826;SHT31;58446;41.490;22.098;2023-05-07T14:34:44;26.61;34.35
70826;SHT31;58446;41.490;22.098;2023-05-07T14:37:10;26.51;34.27
70826;SHT31;58446;41.490;22.098;2023-05-07T14:39:36;26.45;34.16
70826;SHT31;58446;41.490;22.098;2023-05-07T14:42:02;26.52;33.94
70826;SHT31;58446;41.490;22.098;2023-05-07T14:44:28;26.72;33.56
70826;SHT31;58446;41.490;22.098;2023-05-07T14:46:54;26.84;33.85
70826;SHT31;58446;41.490;22.098;2023-05-07T14:49:20;26.82;33.63
70826;SHT31;58446;41.490;22.098;2023-05-07T14:51:46;26.91;33.64
70826;SHT31;58446;41.490;22.098;2023-05-07T14:54:12;26.91;33.59
70826;SHT31;58446;41.490;22.098;2023-05-07T14:56:39;26.78;33.74
70826;SHT31;58446;41.490;22.098;2023-05-07T14:59:05;26.81;33.71
70826;SHT31;58446;41.490;22.098;2023-05-07T15:01:31;26.92;33.75
70826;SHT31;58446;41.490;22.098;2023-05-07T15:03:58;26.95;32.75
70826;SHT31;58446;41.490;22.098;2023-05-07T15:06:25;26.92;32.90
70826;SHT31;58446;41.490;22.098;2023-05-07T15:08:51;26.77;33.00
70826;SHT31;58446;41.490;22.098;2023-05-07T15:11:17;26.57;33.06
70826;SHT31;58446;41.490;22.098;2023-05-07T15:13:43;26.67;32.73
70826;SHT31;58446;41.490;22.098;2023-05-07T15:16:08;26.65;33.41
70826;SHT31;58446;41.490;22.098;2023-05-07T15:18:34;26.48;34.32
70826;SHT31;58446;41.490;22.098;2023-05-07T15:21:00;26.40;34.23
70826;SHT31;58446;41.490;22.098;2023-05-07T15:23:26;26.41;34.34
70826;SHT31;58446;41.490;22.098;2023-05-07T15:25:52;26.48;34.28